Pagina principale
METAR-TAF:

METAR-TAF

Aeroporti :

Shawbury, Inghilterra

latitudine: 52-48N, longitudine: 002-40W, altezza: 76 m

Osservazione

Il bollettino è stato emesso 41 minuti fa, alle 03:50 UTC
Vento 8 kt da nord-ovest
Temperature 3°C
Umidità 75%
Pressione 1039 hPa
Visibilità 10 km o più

METAR: EGOS 300350Z AUTO 31008KT 9999 BKN050/// 03/M01 Q1039

Ora: 05:31 (04:31 UTC)


TAF: mancante

Osservazioni e previsioni meteorologiche di più di 4000 aeroporti (messaggi METAR e TAF).

Le stazioni disponibili sono rappresentate dai dischi gialli e rossi sulla carta.

Puntare il mouse per vedere il nome della stazione.

Clicca sopra per visualizzare le osservazioni e previsioni meteorologiche.

Per cambiare la mappa : fare clic sui pulsanti verdi con una croce nera per ingrandire, il pulsante verde con un trattino per diminuire, o sulla freccia verde per le mappe adiacenti.


METAR-TAF: